sensor_id;sensor_type;location;lat;lon;timestamp;P1;durP1;ratioP1;P2;durP2;ratioP2
9848;SDS011;4963;51.444;6.528;2023-06-26T00:00:33;7.50;;;6.80;;
9848;SDS011;4963;51.444;6.528;2023-06-26T00:03:02;7.25;;;6.55;;
9848;SDS011;4963;51.444;6.528;2023-06-26T00:05:28;7.53;;;6.82;;
9848;SDS011;4963;51.444;6.528;2023-06-26T00:07:55;7.00;;;6.38;;
9848;SDS011;4963;51.444;6.528;2023-06-26T00:10:25;8.50;;;7.38;;
9848;SDS011;4963;51.444;6.528;2023-06-26T00:12:53;8.73;;;6.78;;
9848;SDS011;4963;51.444;6.528;2023-06-26T00:15:20;7.22;;;6.53;;
9848;SDS011;4963;51.444;6.528;2023-06-26T00:17:47;7.28;;;6.57;;
9848;SDS011;4963;51.444;6.528;2023-06-26T00:20:15;7.18;;;6.47;;
9848;SDS011;4963;51.444;6.528;2023-06-26T00:22:43;9.05;;;6.82;;
9848;SDS011;4963;51.444;6.528;2023-06-26T00:25:11;8.52;;;6.60;;
9848;SDS011;4963;51.444;6.528;2023-06-26T00:27:38;7.50;;;6.80;;
9848;SDS011;4963;51.444;6.528;2023-06-26T00:30:06;7.80;;;6.97;;
9848;SDS011;4963;51.444;6.528;2023-06-26T00:32:34;7.75;;;6.78;;
9848;SDS011;4963;51.444;6.528;2023-06-26T00:35:00;8.38;;;7.28;;
9848;SDS011;4963;51.444;6.528;2023-06-26T00:37:27;7.80;;;7.00;;
9848;SDS011;4963;51.444;6.528;2023-06-26T00:39:54;7.25;;;6.65;;
9848;SDS011;4963;51.444;6.528;2023-06-26T00:42:21;9.13;;;6.70;;
9848;SDS011;4963;51.444;6.528;2023-06-26T00:44:47;7.78;;;7.05;;
9848;SDS011;4963;51.444;6.528;2023-06-26T00:47:16;8.50;;;7.55;;
9848;SDS011;4963;51.444;6.528;2023-06-26T00:49:44;7.32;;;6.60;;
9848;SDS011;4963;51.444;6.528;2023-06-26T00:52:11;8.40;;;7.40;;
9848;SDS011;4963;51.444;6.528;2023-06-26T00:54:37;8.13;;;7.30;;
9848;SDS011;4963;51.444;6.528;2023-06-26T00:57:05;7.45;;;6.75;;
9848;SDS011;4963;51.444;6.528;2023-06-26T00:59:32;8.07;;;7.28;;
9848;SDS011;4963;51.444;6.528;2023-06-26T01:01:58;8.48;;;7.68;;
9848;SDS011;4963;51.444;6.528;2023-06-26T01:04:27;8.23;;;7.30;;
9848;SDS011;4963;51.444;6.528;2023-06-26T01:06:57;7.90;;;7.10;;
9848;SDS011;4963;51.444;6.528;2023-06-26T01:09:25;9.43;;;7.85;;
9848;SDS011;4963;51.444;6.528;2023-06-26T01:11:52;10.02;;;7.57;;
9848;SDS011;4963;51.444;6.528;2023-06-26T01:14:20;8.05;;;7.25;;
9848;SDS011;4963;51.444;6.528;2023-06-26T01:16:46;8.65;;;6.85;;
9848;SDS011;4963;51.444;6.528;2023-06-26T01:19:17;7.80;;;7.00;;
9848;SDS011;4963;51.444;6.528;2023-06-26T01:21:51;8.45;;;7.43;;
9848;SDS011;4963;51.444;6.528;2023-06-26T01:24:24;8.05;;;7.25;;
9848;SDS011;4963;51.444;6.528;2023-06-26T01:26:59;8.98;;;8.02;;
9848;SDS011;4963;51.444;6.528;2023-06-26T01:29:27;8.65;;;7.32;;
9848;SDS011;4963;51.444;6.528;2023-06-26T01:31:56;7.90;;;7.10;;
9848;SDS011;4963;51.444;6.528;2023-06-26T01:34:24;8.50;;;7.70;;
9848;SDS011;4963;51.444;6.528;2023-06-26T01:36:51;7.53;;;6.82;;
9848;SDS011;4963;51.444;6.528;2023-06-26T01:39:18;8.68;;;7.75;;
9848;SDS011;4963;51.444;6.528;2023-06-26T01:41:45;11.10;;;7.68;;
9848;SDS011;4963;51.444;6.528;2023-06-26T01:44:17;7.70;;;6.90;;
9848;SDS011;4963;51.444;6.528;2023-06-26T01:46:53;7.47;;;6.68;;
9848;SDS011;4963;51.444;6.528;2023-06-26T01:49:33;8.10;;;7.00;;
9848;SDS011;4963;51.444;6.528;2023-06-26T01:52:12;11.05;;;7.55;;
9848;SDS011;4963;51.444;6.528;2023-06-26T01:54:47;8.48;;;7.18;;
9848;SDS011;4963;51.444;6.528;2023-06-26T01:57:19;9.18;;;7.60;;
9848;SDS011;4963;51.444;6.528;2023-06-26T01:59:49;8.20;;;7.40;;
9848;SDS011;4963;51.444;6.528;2023-06-26T02:02:18;9.75;;;7.50;;
9848;SDS011;4963;51.444;6.528;2023-06-26T02:04:44;8.45;;;7.60;;
9848;SDS011;4963;51.444;6.528;2023-06-26T02:07:13;8.23;;;7.35;;
9848;SDS011;4963;51.444;6.528;2023-06-26T02:09:40;8.40;;;7.50;;
9848;SDS011;4963;51.444;6.528;2023-06-26T02:12:07;9.98;;;8.38;;
9848;SDS011;4963;51.444;6.528;2023-06-26T02:14:34;8.20;;;7.28;;
9848;SDS011;4963;51.444;6.528;2023-06-26T02:17:03;8.07;;;7.28;;
9848;SDS011;4963;51.444;6.528;2023-06-26T02:19:30;8.00;;;7.20;;
9848;SDS011;4963;51.444;6.528;2023-06-26T02:21:57;9.45;;;7.82;;
9848;SDS011;4963;51.444;6.528;2023-06-26T02:24:23;8.65;;;7.63;;
9848;SDS011;4963;51.444;6.528;2023-06-26T02:26:52;8.68;;;7.82;;
9848;SDS011;4963;51.444;6.528;2023-06-26T02:29:19;8.70;;;7.82;;
9848;SDS011;4963;51.444;6.528;2023-06-26T02:31:46;8.82;;;7.63;;
9848;SDS011;4963;51.444;6.528;2023-06-26T02:34:14;10.45;;;7.55;;
9848;SDS011;4963;51.444;6.528;2023-06-26T02:36:41;8.82;;;7.95;;
9848;SDS011;4963;51.444;6.528;2023-06-26T02:39:07;9.57;;;7.88;;
9848;SDS011;4963;51.444;6.528;2023-06-26T02:41:34;8.88;;;7.32;;
9848;SDS011;4963;51.444;6.528;2023-06-26T02:44:01;8.20;;;7.45;;
9848;SDS011;4963;51.444;6.528;2023-06-26T02:46:28;8.57;;;7.60;;
9848;SDS011;4963;51.444;6.528;2023-06-26T02:48:55;8.27;;;7.47;;
9848;SDS011;4963;51.444;6.528;2023-06-26T02:51:23;8.77;;;7.57;;
9848;SDS011;4963;51.444;6.528;2023-06-26T02:53:50;7.57;;;6.88;;
9848;SDS011;4963;51.444;6.528;2023-06-26T02:56:16;7.85;;;6.57;;
9848;SDS011;4963;51.444;6.528;2023-06-26T02:58:43;8.07;;;7.28;;
9848;SDS011;4963;51.444;6.528;2023-06-26T03:01:10;7.78;;;6.97;;
9848;SDS011;4963;51.444;6.528;2023-06-26T03:03:37;8.07;;;7.20;;
9848;SDS011;4963;51.444;6.528;2023-06-26T03:06:06;8.18;;;6.38;;
9848;SDS011;4963;51.444;6.528;2023-06-26T03:08:36;7.07;;;6.38;;
9848;SDS011;4963;51.444;6.528;2023-06-26T03:11:03;9.23;;;6.78;;
9848;SDS011;4963;51.444;6.528;2023-06-26T03:13:30;7.45;;;6.75;;
9848;SDS011;4963;51.444;6.528;2023-06-26T03:15:57;7.13;;;6.43;;
9848;SDS011;4963;51.444;6.528;2023-06-26T03:18:24;7.25;;;6.55;;
9848;SDS011;4963;51.444;6.528;2023-06-26T03:20:51;10.15;;;7.10;;
9848;SDS011;4963;51.444;6.528;2023-06-26T03:23:19;9.35;;;6.50;;
9848;SDS011;4963;51.444;6.528;2023-06-26T03:25:47;7.35;;;6.65;;
9848;SDS011;4963;51.444;6.528;2023-06-26T03:28:14;8.27;;;6.55;;
9848;SDS011;4963;51.444;6.528;2023-06-26T03:30:41;9.15;;;6.40;;
9848;SDS011;4963;51.444;6.528;2023-06-26T03:33:08;7.30;;;6.60;;
9848;SDS011;4963;51.444;6.528;2023-06-26T03:35:34;8.32;;;7.13;;
9848;SDS011;4963;51.444;6.528;2023-06-26T03:38:01;6.60;;;6.00;;
9848;SDS011;4963;51.444;6.528;2023-06-26T03:40:30;6.63;;;6.03;;
9848;SDS011;4963;51.444;6.528;2023-06-26T03:42:58;7.72;;;5.72;;
9848;SDS011;4963;51.444;6.528;2023-06-26T03:45:25;6.78;;;6.03;;
9848;SDS011;4963;51.444;6.528;2023-06-26T03:47:51;6.90;;;5.70;;
9848;SDS011;4963;51.444;6.528;2023-06-26T03:50:18;6.38;;;5.60;;
9848;SDS011;4963;51.444;6.528;2023-06-26T03:52:45;8.45;;;6.18;;
9848;SDS011;4963;51.444;6.528;2023-06-26T03:55:12;6.45;;;5.75;;
9848;SDS011;4963;51.444;6.528;2023-06-26T03:57:39;7.15;;;5.32;;
9848;SDS011;4963;51.444;6.528;2023-06-26T04:00:08;6.57;;;5.65;;
9848;SDS011;4963;51.444;6.528;2023-06-26T04:02:37;8.38;;;5.60;;
9848;SDS011;4963;51.444;6.528;2023-06-26T04:05:05;6.00;;;5.22;;
9848;SDS011;4963;51.444;6.528;2023-06-26T04:07:32;6.72;;;5.22;;
9848;SDS011;4963;51.444;6.528;2023-06-26T04:09:59;8.52;;;5.18;;
9848;SDS011;4963;51.444;6.528;2023-06-26T04:12:26;7.38;;;5.60;;
9848;SDS011;4963;51.444;6.528;2023-06-26T04:14:53;6.10;;;4.63;;
9848;SDS011;4963;51.444;6.528;2023-06-26T04:17:21;11.20;;;5.40;;
9848;SDS011;4963;51.444;6.528;2023-06-26T04:19:48;5.70;;;4.80;;
9848;SDS011;4963;51.444;6.528;2023-06-26T04:22:15;7.43;;;4.85;;
9848;SDS011;4963;51.444;6.528;2023-06-26T04:24:42;7.07;;;5.15;;
9848;SDS011;4963;51.444;6.528;2023-06-26T04:27:11;7.18;;;4.90;;
9848;SDS011;4963;51.444;6.528;2023-06-26T04:29:39;5.78;;;4.97;;
9848;SDS011;4963;51.444;6.528;2023-06-26T04:32:06;6.65;;;5.18;;
9848;SDS011;4963;51.444;6.528;2023-06-26T04:34:34;7.57;;;5.63;;
9848;SDS011;4963;51.444;6.528;2023-06-26T04:37:06;9.05;;;5.65;;
9848;SDS011;4963;51.444;6.528;2023-06-26T04:39:34;7.70;;;5.90;;
9848;SDS011;4963;51.444;6.528;2023-06-26T04:42:03;7.05;;;5.53;;
9848;SDS011;4963;51.444;6.528;2023-06-26T04:44:30;7.63;;;5.88;;
9848;SDS011;4963;51.444;6.528;2023-06-26T04:46:57;7.15;;;5.43;;
9848;SDS011;4963;51.444;6.528;2023-06-26T04:49:24;7.68;;;6.32;;
9848;SDS011;4963;51.444;6.528;2023-06-26T04:51:54;7.95;;;6.07;;
9848;SDS011;4963;51.444;6.528;2023-06-26T04:54:20;6.32;;;5.53;;
9848;SDS011;4963;51.444;6.528;2023-06-26T04:56:48;6.35;;;5.63;;
9848;SDS011;4963;51.444;6.528;2023-06-26T04:59:15;6.28;;;5.65;;
9848;SDS011;4963;51.444;6.528;2023-06-26T05:01:41;15.13;;;5.68;;
9848;SDS011;4963;51.444;6.528;2023-06-26T05:04:13;5.88;;;5.25;;
9848;SDS011;4963;51.444;6.528;2023-06-26T05:06:40;6.38;;;5.70;;
9848;SDS011;4963;51.444;6.528;2023-06-26T05:09:08;7.35;;;5.45;;
9848;SDS011;4963;51.444;6.528;2023-06-26T05:11:35;7.78;;;5.63;;
9848;SDS011;4963;51.444;6.528;2023-06-26T05:14:02;7.18;;;5.53;;
9848;SDS011;4963;51.444;6.528;2023-06-26T05:16:32;7.40;;;5.68;;
9848;SDS011;4963;51.444;6.528;2023-06-26T05:18:59;6.80;;;4.95;;
9848;SDS011;4963;51.444;6.528;2023-06-26T05:21:27;10.07;;;5.05;;
9848;SDS011;4963;51.444;6.528;2023-06-26T05:23:55;7.70;;;4.97;;
9848;SDS011;4963;51.444;6.528;2023-06-26T05:26:25;10.75;;;4.93;;
9848;SDS011;4963;51.444;6.528;2023-06-26T05:28:53;6.43;;;5.05;;
9848;SDS011;4963;51.444;6.528;2023-06-26T05:31:20;10.27;;;5.20;;
9848;SDS011;4963;51.444;6.528;2023-06-26T05:33:48;7.57;;;4.72;;
9848;SDS011;4963;51.444;6.528;2023-06-26T05:36:16;9.32;;;5.25;;
9848;SDS011;4963;51.444;6.528;2023-06-26T05:38:45;7.05;;;5.00;;
9848;SDS011;4963;51.444;6.528;2023-06-26T05:41:13;7.72;;;5.13;;
9848;SDS011;4963;51.444;6.528;2023-06-26T05:43:42;7.20;;;4.57;;
9848;SDS011;4963;51.444;6.528;2023-06-26T05:46:09;9.75;;;5.30;;
9848;SDS011;4963;51.444;6.528;2023-06-26T05:48:35;6.55;;;4.57;;
9848;SDS011;4963;51.444;6.528;2023-06-26T05:51:03;9.52;;;5.07;;
9848;SDS011;4963;51.444;6.528;2023-06-26T05:53:30;8.40;;;5.20;;
9848;SDS011;4963;51.444;6.528;2023-06-26T05:55:57;11.95;;;5.22;;
9848;SDS011;4963;51.444;6.528;2023-06-26T05:58:25;9.25;;;5.07;;
9848;SDS011;4963;51.444;6.528;2023-06-26T06:00:54;9.10;;;5.72;;
9848;SDS011;4963;51.444;6.528;2023-06-26T06:03:21;11.18;;;5.25;;
9848;SDS011;4963;51.444;6.528;2023-06-26T06:05:48;8.65;;;5.35;;
9848;SDS011;4963;51.444;6.528;2023-06-26T06:08:15;7.90;;;5.10;;
9848;SDS011;4963;51.444;6.528;2023-06-26T06:10:42;8.57;;;5.13;;
9848;SDS011;4963;51.444;6.528;2023-06-26T06:13:11;8.70;;;5.38;;
9848;SDS011;4963;51.444;6.528;2023-06-26T06:15:38;11.80;;;5.50;;
9848;SDS011;4963;51.444;6.528;2023-06-26T06:18:06;8.90;;;4.95;;
9848;SDS011;4963;51.444;6.528;2023-06-26T06:20:33;10.60;;;5.22;;
9848;SDS011;4963;51.444;6.528;2023-06-26T06:23:00;11.70;;;5.00;;
9848;SDS011;4963;51.444;6.528;2023-06-26T06:25:27;10.25;;;4.88;;
9848;SDS011;4963;51.444;6.528;2023-06-26T06:27:54;8.30;;;5.07;;
9848;SDS011;4963;51.444;6.528;2023-06-26T06:30:21;8.63;;;5.28;;
9848;SDS011;4963;51.444;6.528;2023-06-26T06:32:48;9.65;;;5.03;;
9848;SDS011;4963;51.444;6.528;2023-06-26T06:35:18;7.00;;;5.28;;
9848;SDS011;4963;51.444;6.528;2023-06-26T06:37:45;9.93;;;5.28;;
9848;SDS011;4963;51.444;6.528;2023-06-26T06:40:12;9.07;;;5.00;;
9848;SDS011;4963;51.444;6.528;2023-06-26T06:42:42;10.00;;;5.40;;
9848;SDS011;4963;51.444;6.528;2023-06-26T06:45:09;9.30;;;5.00;;
9848;SDS011;4963;51.444;6.528;2023-06-26T06:47:36;9.48;;;5.43;;
9848;SDS011;4963;51.444;6.528;2023-06-26T06:50:02;7.18;;;4.95;;
9848;SDS011;4963;51.444;6.528;2023-06-26T06:52:35;13.40;;;5.25;;
9848;SDS011;4963;51.444;6.528;2023-06-26T06:55:03;9.52;;;4.90;;
9848;SDS011;4963;51.444;6.528;2023-06-26T06:57:33;8.23;;;5.70;;
9848;SDS011;4963;51.444;6.528;2023-06-26T07:00:03;13.98;;;5.90;;
9848;SDS011;4963;51.444;6.528;2023-06-26T07:02:33;13.02;;;6.30;;
9848;SDS011;4963;51.444;6.528;2023-06-26T07:05:00;8.30;;;5.50;;
9848;SDS011;4963;51.444;6.528;2023-06-26T07:07:28;12.35;;;5.95;;
9848;SDS011;4963;51.444;6.528;2023-06-26T07:09:58;10.25;;;5.97;;
9848;SDS011;4963;51.444;6.528;2023-06-26T07:12:25;10.65;;;5.80;;
9848;SDS011;4963;51.444;6.528;2023-06-26T07:14:52;10.55;;;5.82;;
9848;SDS011;4963;51.444;6.528;2023-06-26T07:17:19;9.85;;;5.00;;
9848;SDS011;4963;51.444;6.528;2023-06-26T07:19:46;9.82;;;5.40;;
9848;SDS011;4963;51.444;6.528;2023-06-26T07:22:13;10.02;;;5.35;;
9848;SDS011;4963;51.444;6.528;2023-06-26T07:24:40;11.90;;;5.43;;
9848;SDS011;4963;51.444;6.528;2023-06-26T07:27:08;11.35;;;5.50;;
9848;SDS011;4963;51.444;6.528;2023-06-26T07:29:35;9.00;;;5.25;;
9848;SDS011;4963;51.444;6.528;2023-06-26T07:32:02;7.60;;;5.35;;
9848;SDS011;4963;51.444;6.528;2023-06-26T07:34:29;9.77;;;5.43;;
9848;SDS011;4963;51.444;6.528;2023-06-26T07:36:55;10.50;;;4.82;;
9848;SDS011;4963;51.444;6.528;2023-06-26T07:39:25;10.63;;;5.18;;
9848;SDS011;4963;51.444;6.528;2023-06-26T07:41:52;11.10;;;4.97;;
9848;SDS011;4963;51.444;6.528;2023-06-26T07:44:21;12.13;;;4.95;;
9848;SDS011;4963;51.444;6.528;2023-06-26T07:46:48;8.60;;;4.70;;
9848;SDS011;4963;51.444;6.528;2023-06-26T07:49:15;10.30;;;4.80;;
9848;SDS011;4963;51.444;6.528;2023-06-26T07:51:41;11.43;;;5.43;;
9848;SDS011;4963;51.444;6.528;2023-06-26T07:54:08;7.30;;;4.50;;
9848;SDS011;4963;51.444;6.528;2023-06-26T07:56:51;11.00;;;4.50;;
9848;SDS011;4963;51.444;6.528;2023-06-26T07:59:20;10.68;;;4.93;;
9848;SDS011;4963;51.444;6.528;2023-06-26T08:01:48;6.45;;;4.40;;
9848;SDS011;4963;51.444;6.528;2023-06-26T08:04:17;11.27;;;4.45;;
9848;SDS011;4963;51.444;6.528;2023-06-26T08:06:45;11.75;;;4.63;;
9848;SDS011;4963;51.444;6.528;2023-06-26T08:09:12;14.35;;;4.40;;
9848;SDS011;4963;51.444;6.528;2023-06-26T08:11:38;9.63;;;4.55;;
9848;SDS011;4963;51.444;6.528;2023-06-26T08:14:05;8.80;;;4.75;;
9848;SDS011;4963;51.444;6.528;2023-06-26T08:16:34;8.20;;;4.28;;
9848;SDS011;4963;51.444;6.528;2023-06-26T08:19:00;6.63;;;3.90;;
9848;SDS011;4963;51.444;6.528;2023-06-26T08:21:27;8.93;;;4.25;;
9848;SDS011;4963;51.444;6.528;2023-06-26T08:23:54;8.10;;;4.10;;
9848;SDS011;4963;51.444;6.528;2023-06-26T08:26:21;7.45;;;4.20;;
9848;SDS011;4963;51.444;6.528;2023-06-26T08:28:48;6.72;;;4.20;;
9848;SDS011;4963;51.444;6.528;2023-06-26T08:31:15;8.73;;;4.68;;
9848;SDS011;4963;51.444;6.528;2023-06-26T08:33:44;8.35;;;4.05;;
9848;SDS011;4963;51.444;6.528;2023-06-26T08:36:11;7.03;;;3.92;;
9848;SDS011;4963;51.444;6.528;2023-06-26T08:38:37;8.25;;;4.50;;
9848;SDS011;4963;51.444;6.528;2023-06-26T08:41:05;6.45;;;4.18;;
9848;SDS011;4963;51.444;6.528;2023-06-26T08:43:32;7.78;;;4.35;;
9848;SDS011;4963;51.444;6.528;2023-06-26T08:45:59;7.18;;;4.15;;
9848;SDS011;4963;51.444;6.528;2023-06-26T08:48:29;13.43;;;3.85;;
9848;SDS011;4963;51.444;6.528;2023-06-26T08:51:00;9.45;;;4.28;;
9848;SDS011;4963;51.444;6.528;2023-06-26T08:53:33;7.70;;;3.78;;
9848;SDS011;4963;51.444;6.528;2023-06-26T08:56:05;8.50;;;3.80;;
9848;SDS011;4963;51.444;6.528;2023-06-26T08:58:34;9.57;;;4.18;;
9848;SDS011;4963;51.444;6.528;2023-06-26T09:01:03;9.10;;;3.67;;
9848;SDS011;4963;51.444;6.528;2023-06-26T09:03:30;9.38;;;4.55;;
9848;SDS011;4963;51.444;6.528;2023-06-26T09:05:59;5.75;;;3.17;;
9848;SDS011;4963;51.444;6.528;2023-06-26T09:08:26;8.15;;;3.97;;
9848;SDS011;4963;51.444;6.528;2023-06-26T09:10:53;9.57;;;4.63;;
9848;SDS011;4963;51.444;6.528;2023-06-26T09:13:20;8.13;;;3.55;;
9848;SDS011;4963;51.444;6.528;2023-06-26T09:15:47;6.82;;;4.00;;
9848;SDS011;4963;51.444;6.528;2023-06-26T09:18:14;7.03;;;4.13;;
9848;SDS011;4963;51.444;6.528;2023-06-26T09:20:44;12.55;;;4.75;;
9848;SDS011;4963;51.444;6.528;2023-06-26T09:23:12;9.63;;;4.15;;
9848;SDS011;4963;51.444;6.528;2023-06-26T09:25:40;6.45;;;3.55;;
9848;SDS011;4963;51.444;6.528;2023-06-26T09:28:08;9.98;;;4.10;;
9848;SDS011;4963;51.444;6.528;2023-06-26T09:30:35;6.30;;;3.70;;
9848;SDS011;4963;51.444;6.528;2023-06-26T09:33:12;5.95;;;3.25;;
9848;SDS011;4963;51.444;6.528;2023-06-26T09:35:40;5.40;;;3.40;;
9848;SDS011;4963;51.444;6.528;2023-06-26T09:38:07;8.98;;;3.35;;
9848;SDS011;4963;51.444;6.528;2023-06-26T09:40:35;10.90;;;4.07;;
9848;SDS011;4963;51.444;6.528;2023-06-26T09:43:03;5.20;;;3.03;;
9848;SDS011;4963;51.444;6.528;2023-06-26T09:45:32;4.65;;;2.95;;
9848;SDS011;4963;51.444;6.528;2023-06-26T09:47:59;8.13;;;4.00;;
9848;SDS011;4963;51.444;6.528;2023-06-26T09:50:28;6.22;;;3.60;;
9848;SDS011;4963;51.444;6.528;2023-06-26T09:52:57;5.93;;;3.70;;
9848;SDS011;4963;51.444;6.528;2023-06-26T09:55:24;7.90;;;3.22;;
9848;SDS011;4963;51.444;6.528;2023-06-26T09:57:53;10.65;;;4.10;;
9848;SDS011;4963;51.444;6.528;2023-06-26T10:00:25;5.68;;;3.40;;
9848;SDS011;4963;51.444;6.528;2023-06-26T10:02:52;5.93;;;3.22;;
9848;SDS011;4963;51.444;6.528;2023-06-26T10:05:19;4.72;;;2.75;;
9848;SDS011;4963;51.444;6.528;2023-06-26T10:07:46;5.38;;;3.17;;
9848;SDS011;4963;51.444;6.528;2023-06-26T10:10:14;6.75;;;2.97;;
9848;SDS011;4963;51.444;6.528;2023-06-26T10:12:42;10.68;;;3.38;;
9848;SDS011;4963;51.444;6.528;2023-06-26T10:15:13;7.47;;;3.38;;
9848;SDS011;4963;51.444;6.528;2023-06-26T10:17:42;6.13;;;3.80;;
9848;SDS011;4963;51.444;6.528;2023-06-26T10:20:11;7.53;;;3.88;;
9848;SDS011;4963;51.444;6.528;2023-06-26T10:22:41;6.95;;;3.20;;
9848;SDS011;4963;51.444;6.528;2023-06-26T10:25:10;3.92;;;2.60;;
9848;SDS011;4963;51.444;6.528;2023-06-26T10:27:43;3.13;;;2.20;;
9848;SDS011;4963;51.444;6.528;2023-06-26T10:30:16;3.80;;;2.53;;
9848;SDS011;4963;51.444;6.528;2023-06-26T10:32:46;5.60;;;2.28;;
9848;SDS011;4963;51.444;6.528;2023-06-26T10:35:14;5.32;;;2.70;;
9848;SDS011;4963;51.444;6.528;2023-06-26T10:37:41;5.68;;;2.30;;
9848;SDS011;4963;51.444;6.528;2023-06-26T10:40:10;7.47;;;2.30;;
9848;SDS011;4963;51.444;6.528;2023-06-26T10:42:38;2.28;;;1.80;;
9848;SDS011;4963;51.444;6.528;2023-06-26T10:45:09;3.25;;;2.03;;
9848;SDS011;4963;51.444;6.528;2023-06-26T10:47:39;8.70;;;2.33;;
9848;SDS011;4963;51.444;6.528;2023-06-26T10:50:16;6.88;;;1.98;;
9848;SDS011;4963;51.444;6.528;2023-06-26T10:52:44;6.25;;;2.13;;
9848;SDS011;4963;51.444;6.528;2023-06-26T10:55:13;4.20;;;1.98;;
9848;SDS011;4963;51.444;6.528;2023-06-26T10:57:44;2.55;;;1.90;;
9848;SDS011;4963;51.444;6.528;2023-06-26T11:00:14;4.70;;;2.30;;
9848;SDS011;4963;51.444;6.528;2023-06-26T11:02:50;3.53;;;1.90;;
9848;SDS011;4963;51.444;6.528;2023-06-26T11:05:24;4.13;;;2.42;;
9848;SDS011;4963;51.444;6.528;2023-06-26T11:08:05;5.03;;;2.15;;
9848;SDS011;4963;51.444;6.528;2023-06-26T11:13:26;4.57;;;2.15;;
9848;SDS011;4963;51.444;6.528;2023-06-26T11:15:53;2.80;;;1.52;;
9848;SDS011;4963;51.444;6.528;2023-06-26T11:18:23;3.60;;;2.00;;
9848;SDS011;4963;51.444;6.528;2023-06-26T11:20:50;5.78;;;1.83;;
9848;SDS011;4963;51.444;6.528;2023-06-26T11:23:19;4.50;;;1.92;;
9848;SDS011;4963;51.444;6.528;2023-06-26T11:25:49;5.05;;;1.80;;
9848;SDS011;4963;51.444;6.528;2023-06-26T11:28:16;2.92;;;1.70;;
9848;SDS011;4963;51.444;6.528;2023-06-26T11:30:43;4.40;;;1.77;;
9848;SDS011;4963;51.444;6.528;2023-06-26T11:33:10;3.53;;;1.80;;
9848;SDS011;4963;51.444;6.528;2023-06-26T11:35:38;3.20;;;1.65;;
9848;SDS011;4963;51.444;6.528;2023-06-26T11:38:05;2.97;;;1.60;;
9848;SDS011;4963;51.444;6.528;2023-06-26T11:40:34;1.58;;;1.38;;
9848;SDS011;4963;51.444;6.528;2023-06-26T11:43:03;2.55;;;1.70;;
9848;SDS011;4963;51.444;6.528;2023-06-26T11:45:30;2.90;;;1.52;;
9848;SDS011;4963;51.444;6.528;2023-06-26T11:47:58;2.10;;;1.23;;
9848;SDS011;4963;51.444;6.528;2023-06-26T11:50:26;4.97;;;1.48;;
9848;SDS011;4963;51.444;6.528;2023-06-26T11:52:55;1.75;;;1.40;;
9848;SDS011;4963;51.444;6.528;2023-06-26T11:55:22;1.85;;;1.48;;
9848;SDS011;4963;51.444;6.528;2023-06-26T11:57:52;3.10;;;1.45;;
9848;SDS011;4963;51.444;6.528;2023-06-26T12:00:20;3.83;;;1.58;;
9848;SDS011;4963;51.444;6.528;2023-06-26T12:02:47;4.03;;;1.70;;
9848;SDS011;4963;51.444;6.528;2023-06-26T12:05:15;2.15;;;1.40;;
9848;SDS011;4963;51.444;6.528;2023-06-26T12:07:43;4.20;;;1.27;;
9848;SDS011;4963;51.444;6.528;2023-06-26T12:10:12;3.00;;;1.35;;
9848;SDS011;4963;51.444;6.528;2023-06-26T12:12:41;3.85;;;1.63;;
9848;SDS011;4963;51.444;6.528;2023-06-26T12:15:10;2.83;;;1.58;;
9848;SDS011;4963;51.444;6.528;2023-06-26T12:17:40;2.70;;;1.40;;
9848;SDS011;4963;51.444;6.528;2023-06-26T12:20:16;3.53;;;1.30;;
9848;SDS011;4963;51.444;6.528;2023-06-26T12:22:45;3.47;;;1.60;;
9848;SDS011;4963;51.444;6.528;2023-06-26T12:25:14;2.25;;;1.50;;
9848;SDS011;4963;51.444;6.528;2023-06-26T12:27:44;3.58;;;1.52;;
9848;SDS011;4963;51.444;6.528;2023-06-26T12:30:11;2.38;;;1.50;;
9848;SDS011;4963;51.444;6.528;2023-06-26T12:32:39;2.05;;;1.25;;
9848;SDS011;4963;51.444;6.528;2023-06-26T12:35:06;2.38;;;1.50;;
9848;SDS011;4963;51.444;6.528;2023-06-26T12:37:36;2.95;;;1.77;;
9848;SDS011;4963;51.444;6.528;2023-06-26T12:40:15;2.30;;;1.52;;
9848;SDS011;4963;51.444;6.528;2023-06-26T12:42:47;2.35;;;1.60;;
9848;SDS011;4963;51.444;6.528;2023-06-26T12:45:14;3.70;;;1.60;;
9848;SDS011;4963;51.444;6.528;2023-06-26T12:47:41;3.80;;;1.60;;
9848;SDS011;4963;51.444;6.528;2023-06-26T12:50:08;4.45;;;1.60;;
9848;SDS011;4963;51.444;6.528;2023-06-26T12:52:35;4.65;;;1.40;;
9848;SDS011;4963;51.444;6.528;2023-06-26T12:55:02;2.97;;;1.55;;
9848;SDS011;4963;51.444;6.528;2023-06-26T12:57:32;2.78;;;1.30;;
9848;SDS011;4963;51.444;6.528;2023-06-26T12:59:59;2.20;;;1.38;;
9848;SDS011;4963;51.444;6.528;2023-06-26T13:02:26;2.40;;;1.40;;
9848;SDS011;4963;51.444;6.528;2023-06-26T13:04:53;3.05;;;1.52;;
9848;SDS011;4963;51.444;6.528;2023-06-26T13:07:20;3.00;;;1.52;;
9848;SDS011;4963;51.444;6.528;2023-06-26T13:09:50;2.83;;;1.17;;
9848;SDS011;4963;51.444;6.528;2023-06-26T13:12:17;3.83;;;1.45;;
9848;SDS011;4963;51.444;6.528;2023-06-26T13:14:45;5.53;;;1.65;;
9848;SDS011;4963;51.444;6.528;2023-06-26T13:17:13;4.22;;;1.70;;
9848;SDS011;4963;51.444;6.528;2023-06-26T13:19:40;3.17;;;1.70;;
9848;SDS011;4963;51.444;6.528;2023-06-26T13:22:06;3.80;;;1.60;;
9848;SDS011;4963;51.444;6.528;2023-06-26T13:24:33;2.47;;;1.83;;
9848;SDS011;4963;51.444;6.528;2023-06-26T13:27:00;3.03;;;1.50;;
9848;SDS011;4963;51.444;6.528;2023-06-26T13:29:27;3.53;;;1.67;;
9848;SDS011;4963;51.444;6.528;2023-06-26T13:31:56;4.20;;;1.92;;
9848;SDS011;4963;51.444;6.528;2023-06-26T13:34:23;6.72;;;1.90;;
9848;SDS011;4963;51.444;6.528;2023-06-26T13:36:52;4.72;;;1.63;;
9848;SDS011;4963;51.444;6.528;2023-06-26T13:39:19;4.00;;;1.58;;
9848;SDS011;4963;51.444;6.528;2023-06-26T13:41:46;3.80;;;1.83;;
9848;SDS011;4963;51.444;6.528;2023-06-26T13:44:13;3.13;;;1.40;;
9848;SDS011;4963;51.444;6.528;2023-06-26T13:46:40;2.38;;;1.40;;
9848;SDS011;4963;51.444;6.528;2023-06-26T13:49:08;3.92;;;1.60;;
9848;SDS011;4963;51.444;6.528;2023-06-26T13:51:35;4.65;;;1.58;;
9848;SDS011;4963;51.444;6.528;2023-06-26T13:54:05;2.13;;;1.27;;
9848;SDS011;4963;51.444;6.528;2023-06-26T13:56:33;3.88;;;1.42;;
9848;SDS011;4963;51.444;6.528;2023-06-26T13:59:00;3.53;;;1.63;;
9848;SDS011;4963;51.444;6.528;2023-06-26T14:01:27;3.38;;;1.50;;
9848;SDS011;4963;51.444;6.528;2023-06-26T14:03:54;4.68;;;1.60;;
9848;SDS011;4963;51.444;6.528;2023-06-26T14:06:22;2.30;;;1.35;;
9848;SDS011;4963;51.444;6.528;2023-06-26T14:08:49;3.05;;;1.38;;
9848;SDS011;4963;51.444;6.528;2023-06-26T14:11:16;3.22;;;1.63;;
9848;SDS011;4963;51.444;6.528;2023-06-26T14:13:44;5.70;;;1.45;;
9848;SDS011;4963;51.444;6.528;2023-06-26T14:16:11;2.47;;;1.20;;
9848;SDS011;4963;51.444;6.528;2023-06-26T14:18:38;2.50;;;1.40;;
9848;SDS011;4963;51.444;6.528;2023-06-26T14:21:05;2.33;;;1.40;;
9848;SDS011;4963;51.444;6.528;2023-06-26T14:23:33;1.77;;;1.50;;
9848;SDS011;4963;51.444;6.528;2023-06-26T14:26:00;2.80;;;1.70;;
9848;SDS011;4963;51.444;6.528;2023-06-26T14:28:27;2.13;;;1.45;;
9848;SDS011;4963;51.444;6.528;2023-06-26T14:30:54;4.13;;;1.58;;
9848;SDS011;4963;51.444;6.528;2023-06-26T14:33:21;2.17;;;1.55;;
9848;SDS011;4963;51.444;6.528;2023-06-26T14:35:48;3.58;;;1.50;;
9848;SDS011;4963;51.444;6.528;2023-06-26T14:38:15;7.68;;;1.70;;
9848;SDS011;4963;51.444;6.528;2023-06-26T14:40:43;2.67;;;1.38;;
9848;SDS011;4963;51.444;6.528;2023-06-26T14:43:10;1.73;;;1.20;;
9848;SDS011;4963;51.444;6.528;2023-06-26T14:45:37;3.50;;;1.70;;
9848;SDS011;4963;51.444;6.528;2023-06-26T14:48:04;3.35;;;1.52;;
9848;SDS011;4963;51.444;6.528;2023-06-26T14:50:31;2.35;;;1.45;;
9848;SDS011;4963;51.444;6.528;2023-06-26T14:52:58;4.63;;;1.48;;
9848;SDS011;4963;51.444;6.528;2023-06-26T14:55:25;2.47;;;1.40;;
9848;SDS011;4963;51.444;6.528;2023-06-26T14:57:53;3.83;;;1.42;;
9848;SDS011;4963;51.444;6.528;2023-06-26T15:00:20;5.22;;;2.15;;
9848;SDS011;4963;51.444;6.528;2023-06-26T15:02:47;6.05;;;1.80;;
9848;SDS011;4963;51.444;6.528;2023-06-26T15:05:18;4.00;;;1.80;;
9848;SDS011;4963;51.444;6.528;2023-06-26T15:07:45;3.05;;;1.70;;
9848;SDS011;4963;51.444;6.528;2023-06-26T15:10:12;13.15;;;5.30;;
9848;SDS011;4963;51.444;6.528;2023-06-26T15:12:38;3.40;;;1.80;;
9848;SDS011;4963;51.444;6.528;2023-06-26T15:15:08;8.55;;;1.75;;
9848;SDS011;4963;51.444;6.528;2023-06-26T15:17:35;308.70;;;216.15;;
9848;SDS011;4963;51.444;6.528;2023-06-26T15:20:02;416.95;;;267.23;;